Flight Track Log - Related Links

Times and Time Zones

All times are in EDT time to prevent confusion due to time zone crossing. See the KAP550 flight status page for this flight to view local times or setup timezone preferences in your user account.


Time Position Orientation Groundspeed Altitude Reporting Facility
EDT Latitude Longitude Course Direction KTS MPH feet Rate Location/Type
Wed 05:19:08 PM 44.5906 -74.9325 160° South 151 174 9,100  Level Boston Center
Wed 05:20:08 PM 44.5453 -74.9131 163° South 164 189 9,000 -50 Descending Boston Center
Wed 05:21:08 PM 44.4939 -74.8761 153° Southeast 184 212 9,000  Level Boston Center
Wed 05:22:08 PM 44.4444 -74.8450 156° South 192 221 9,000  Level Boston Center
Wed 05:23:00 PM 44.7124 -74.7312 160° South  Level FlightAware Approximate
Wed 05:23:08 PM 44.3931 -74.8136 156° South 198 228 9,000  Level Boston Center
Wed 05:24:08 PM 44.3439 -74.7828 156° South 198 228 9,000  Level Boston Center
Wed 05:25:08 PM 44.2944 -74.7517 156° South 198 228 9,000  Level Boston Center
Wed 05:26:08 PM 44.2450 -74.7208 156° South 193 222 9,000  Level Boston Center
Wed 05:27:08 PM 44.1956 -74.6931 158° South 193 222 9,000  Level Boston Center
Wed 05:28:08 PM 44.1461 -74.6592 154° Southeast 193 222 9,000  Level Boston Center
Wed 05:29:08 PM 44.0967 -74.6283 156° South 193 222 9,000  Level Boston Center
Wed 05:30:08 PM 44.0472 -74.5978 156° South 193 222 9,000 350 Level Boston Center
Wed 05:31:08 PM 44.0000 -74.5672 155° Southeast 187 215 9,700 500 Climbing Boston Center
Wed 05:32:08 PM 43.9567 -74.5397 155° Southeast 180 207 10,000 200 Climbing Boston Center
Wed 05:33:08 PM 43.9050 -74.5092 157° South 187 215 10,100 50 Climbing Boston Center
Wed 05:34:08 PM 43.8536 -74.4756 155° Southeast 199 229 10,100  Level Boston Center
Wed 05:35:08 PM 43.7981 -74.4422 157° South 209 241 10,100  Level Boston Center
Wed 05:36:08 PM 43.7444 -74.4086 156° South 209 241 10,100  Level Boston Center
Wed 05:37:08 PM 43.6886 -74.3725 155° Southeast 214 246 10,100 50 Level Boston Center
Wed 05:38:08 PM 43.6453 -74.3481 158° South 214 246 10,200 50 Climbing Boston Center
Wed 05:39:08 PM 43.5917 -74.3178 158° South 214 246 10,200  Level Boston Center
Wed 05:40:09 PM 43.5378 -74.2931 162° South 207 238 10,200  Level Boston Center
Wed 05:40:52 PM 43.4967 -74.2689 157° South 216 249 10,200  Level Boston Center
Wed 05:41:20 PM 43.4864 -74.2572 141° Southeast 207 238 10,200 -212 Level Boston Center
Wed 05:42:17 PM 43.4203 -74.2094 152° Southeast 211 243 9,900 -153 Descending Boston Center
Wed 05:43:18 PM 43.3689 -74.1767 155° Southeast 217 250 9,900 98 Level Boston Center
Wed 05:44:20 PM 43.3153 -74.1408 154° Southeast 217 250 10,100 98 Climbing Boston Center
Wed 05:45:20 PM 43.2594 -74.0964 150° Southeast 217 250 10,100 -450 Level Boston Center
Wed 05:46:20 PM 43.2100 -74.0639 154° Southeast 217 250 9,200 -1,056 Descending Boston Center
Wed 05:47:08 PM 43.1603 -74.0397 160° South 218 251 8,200 -936 Descending Boston Center
Wed 05:48:09 PM 43.1106 -74.0128 158° South 194 223 7,500 -836 Descending Boston Center
Wed 05:49:10 PM 43.0611 -73.9861 158° South 178 205 6,500 -870 Descending Boston Center
Wed 05:50:20 PM 43.0072 -73.9533 156° South 189 217 5,600 -1,041 Descending Boston Center
Wed 05:51:11 PM 42.9658 -73.9297 157° South 196 226 4,400 -1,100 Descending Boston Center
Wed 05:52:20 PM 42.9206 -73.8775 140° Southeast 189 217 3,400 -884 Descending Boston Center
Wed 05:53:20 PM 42.8775 -73.8369 145° Southeast 178 205 2,500 -816 Descending Boston Center
Wed 05:54:25 PM 42.8339 -73.8161 161° South 151 174 1,700 3,750 Descending Boston Center
Wed 05:55:20 PM 42.7950 -73.7642 136° Southeast 169 194 10,000 -563 Climbing Boston Center
Wed 05:56:33 PM 42.7653 -73.8061 226° Southwest 96 110 500 -7,808 Descending Boston Center

Login

Don't have an account? Register now (free) for customized features, flight alerts, and more!